COZ weather

Tamaca Airport
Codazzi, César Department, Colombia

Public forecast

Using degrees Celsius for public forecast. Weather courtesy of forecast.io.

METAR (pilot weather report)

Closest report is Alfonso López Pumarejo Airport, 31.1 nm (57.7 km) N. Retrieved 2019/04/24 02:00 UTC (15 minutes ago):

SKVP 240200Z 06013KT 9999 FEW020 SCT090 27/21 A2991

TAF (pilot weather forecast)

Forecast is more than 6 hours old.

Closest forecast is La Chinita International Airport, 96.8 nm (179.3 km) ENE. Retrieved 2019/04/23 18:00 UTC (8 hours ago):

TAF SVMC 231600Z 2318/2418 36004KT 9999 SCT016 TX35/18Z TN25/08Z BECMG 2318/2322 11005KT 8000 -DZ BKN016